sensor_id;sensor_type;location;lat;lon;timestamp;P1;durP1;ratioP1;P2;durP2;ratioP2
23567;SDS011;11962;50.838;4.430;2023-08-24T00:00:53;6.70;;;3.53;;
23567;SDS011;11962;50.838;4.430;2023-08-24T00:03:19;7.22;;;4.25;;
23567;SDS011;11962;50.838;4.430;2023-08-24T00:05:47;7.30;;;4.07;;
23567;SDS011;11962;50.838;4.430;2023-08-24T00:08:13;8.38;;;4.25;;
23567;SDS011;11962;50.838;4.430;2023-08-24T00:10:38;5.32;;;3.90;;
23567;SDS011;11962;50.838;4.430;2023-08-24T00:13:04;8.95;;;4.57;;
23567;SDS011;11962;50.838;4.430;2023-08-24T00:15:30;10.88;;;4.22;;
23567;SDS011;11962;50.838;4.430;2023-08-24T00:17:56;8.93;;;4.47;;
23567;SDS011;11962;50.838;4.430;2023-08-24T00:20:22;7.90;;;4.25;;
23567;SDS011;11962;50.838;4.430;2023-08-24T00:22:48;7.90;;;4.40;;
23567;SDS011;11962;50.838;4.430;2023-08-24T00:25:14;12.23;;;4.50;;
23567;SDS011;11962;50.838;4.430;2023-08-24T00:27:40;9.77;;;4.20;;
23567;SDS011;11962;50.838;4.430;2023-08-24T00:30:06;7.00;;;3.95;;
23567;SDS011;11962;50.838;4.430;2023-08-24T00:32:33;10.60;;;4.45;;
23567;SDS011;11962;50.838;4.430;2023-08-24T00:35:03;8.75;;;4.50;;
23567;SDS011;11962;50.838;4.430;2023-08-24T00:37:33;7.43;;;4.28;;
23567;SDS011;11962;50.838;4.430;2023-08-24T00:40:02;6.88;;;4.25;;
23567;SDS011;11962;50.838;4.430;2023-08-24T00:42:36;10.07;;;4.45;;
23567;SDS011;11962;50.838;4.430;2023-08-24T00:45:06;10.10;;;4.57;;
23567;SDS011;11962;50.838;4.430;2023-08-24T00:50:00;8.95;;;4.45;;
23567;SDS011;11962;50.838;4.430;2023-08-24T00:52:26;9.32;;;4.45;;
23567;SDS011;11962;50.838;4.430;2023-08-24T00:54:56;9.75;;;4.25;;
23567;SDS011;11962;50.838;4.430;2023-08-24T00:57:23;7.30;;;4.30;;
23567;SDS011;11962;50.838;4.430;2023-08-24T00:59:48;9.77;;;4.30;;
23567;SDS011;11962;50.838;4.430;2023-08-24T01:02:14;8.32;;;4.45;;
23567;SDS011;11962;50.838;4.430;2023-08-24T01:04:43;7.18;;;4.50;;
23567;SDS011;11962;50.838;4.430;2023-08-24T01:07:09;7.68;;;4.18;;
23567;SDS011;11962;50.838;4.430;2023-08-24T01:09:36;6.25;;;4.20;;
23567;SDS011;11962;50.838;4.430;2023-08-24T01:12:19;6.28;;;4.13;;
23567;SDS011;11962;50.838;4.430;2023-08-24T01:17:29;8.02;;;4.47;;
23567;SDS011;11962;50.838;4.430;2023-08-24T01:19:56;9.52;;;4.38;;
23567;SDS011;11962;50.838;4.430;2023-08-24T01:27:54;8.20;;;4.40;;
23567;SDS011;11962;50.838;4.430;2023-08-24T01:30:20;9.02;;;5.20;;
23567;SDS011;11962;50.838;4.430;2023-08-24T01:32:46;6.13;;;4.38;;
23567;SDS011;11962;50.838;4.430;2023-08-24T01:35:12;8.35;;;4.28;;
23567;SDS011;11962;50.838;4.430;2023-08-24T01:37:38;9.45;;;5.55;;
23567;SDS011;11962;50.838;4.430;2023-08-24T01:40:07;10.07;;;4.70;;
23567;SDS011;11962;50.838;4.430;2023-08-24T01:42:57;6.32;;;4.38;;
23567;SDS011;11962;50.838;4.430;2023-08-24T01:45:28;9.05;;;5.07;;
23567;SDS011;11962;50.838;4.430;2023-08-24T01:47:56;12.75;;;5.50;;
23567;SDS011;11962;50.838;4.430;2023-08-24T01:50:23;10.80;;;5.00;;
23567;SDS011;11962;50.838;4.430;2023-08-24T01:52:49;7.22;;;4.93;;
23567;SDS011;11962;50.838;4.430;2023-08-24T01:55:19;5.88;;;4.63;;
23567;SDS011;11962;50.838;4.430;2023-08-24T01:57:45;6.93;;;5.05;;
23567;SDS011;11962;50.838;4.430;2023-08-24T02:00:11;6.40;;;4.95;;
23567;SDS011;11962;50.838;4.430;2023-08-24T02:02:37;9.55;;;5.28;;
23567;SDS011;11962;50.838;4.430;2023-08-24T02:05:03;7.88;;;4.82;;
23567;SDS011;11962;50.838;4.430;2023-08-24T02:07:29;10.75;;;5.60;;
23567;SDS011;11962;50.838;4.430;2023-08-24T02:09:55;7.97;;;4.95;;
23567;SDS011;11962;50.838;4.430;2023-08-24T02:12:20;8.65;;;4.97;;
23567;SDS011;11962;50.838;4.430;2023-08-24T02:14:46;11.80;;;5.30;;
23567;SDS011;11962;50.838;4.430;2023-08-24T02:17:12;7.95;;;4.85;;
23567;SDS011;11962;50.838;4.430;2023-08-24T02:19:39;9.27;;;5.10;;
23567;SDS011;11962;50.838;4.430;2023-08-24T02:22:06;8.10;;;5.17;;
23567;SDS011;11962;50.838;4.430;2023-08-24T02:24:32;12.32;;;5.22;;
23567;SDS011;11962;50.838;4.430;2023-08-24T02:26:58;10.45;;;5.88;;
23567;SDS011;11962;50.838;4.430;2023-08-24T02:29:24;11.20;;;5.60;;
23567;SDS011;11962;50.838;4.430;2023-08-24T02:31:50;9.15;;;5.22;;
23567;SDS011;11962;50.838;4.430;2023-08-24T02:34:16;11.57;;;5.53;;
23567;SDS011;11962;50.838;4.430;2023-08-24T02:36:42;10.50;;;5.85;;
23567;SDS011;11962;50.838;4.430;2023-08-24T02:39:08;12.07;;;5.72;;
23567;SDS011;11962;50.838;4.430;2023-08-24T02:41:35;8.35;;;5.13;;
23567;SDS011;11962;50.838;4.430;2023-08-24T02:44:01;11.15;;;5.00;;
23567;SDS011;11962;50.838;4.430;2023-08-24T02:46:27;9.57;;;5.35;;
23567;SDS011;11962;50.838;4.430;2023-08-24T02:48:53;10.90;;;5.00;;
23567;SDS011;11962;50.838;4.430;2023-08-24T02:51:20;7.97;;;4.80;;
23567;SDS011;11962;50.838;4.430;2023-08-24T02:56:12;7.97;;;5.18;;
23567;SDS011;11962;50.838;4.430;2023-08-24T02:58:38;9.18;;;5.65;;
23567;SDS011;11962;50.838;4.430;2023-08-24T03:01:04;12.73;;;5.50;;
23567;SDS011;11962;50.838;4.430;2023-08-24T03:03:37;10.68;;;5.55;;
23567;SDS011;11962;50.838;4.430;2023-08-24T03:06:04;12.90;;;5.80;;
23567;SDS011;11962;50.838;4.430;2023-08-24T03:08:32;9.63;;;5.65;;
23567;SDS011;11962;50.838;4.430;2023-08-24T03:10:59;11.93;;;5.15;;
23567;SDS011;11962;50.838;4.430;2023-08-24T03:13:26;8.02;;;5.63;;
23567;SDS011;11962;50.838;4.430;2023-08-24T03:15:52;10.70;;;5.50;;
23567;SDS011;11962;50.838;4.430;2023-08-24T03:18:18;9.93;;;5.90;;
23567;SDS011;11962;50.838;4.430;2023-08-24T03:20:45;6.13;;;5.22;;
23567;SDS011;11962;50.838;4.430;2023-08-24T03:23:12;8.35;;;5.30;;
23567;SDS011;11962;50.838;4.430;2023-08-24T03:25:38;7.72;;;5.60;;
23567;SDS011;11962;50.838;4.430;2023-08-24T03:28:06;7.75;;;5.38;;
23567;SDS011;11962;50.838;4.430;2023-08-24T03:30:33;9.33;;;5.60;;
23567;SDS011;11962;50.838;4.430;2023-08-24T03:33:03;8.48;;;5.50;;
23567;SDS011;11962;50.838;4.430;2023-08-24T03:35:32;9.27;;;5.38;;
23567;SDS011;11962;50.838;4.430;2023-08-24T03:37:58;9.55;;;5.75;;
23567;SDS011;11962;50.838;4.430;2023-08-24T03:40:24;10.10;;;5.20;;
23567;SDS011;11962;50.838;4.430;2023-08-24T03:42:50;9.20;;;5.40;;
23567;SDS011;11962;50.838;4.430;2023-08-24T03:45:17;7.72;;;4.95;;
23567;SDS011;11962;50.838;4.430;2023-08-24T03:47:43;7.32;;;5.13;;
23567;SDS011;11962;50.838;4.430;2023-08-24T03:50:09;8.63;;;4.95;;
23567;SDS011;11962;50.838;4.430;2023-08-24T03:52:35;10.95;;;5.60;;
23567;SDS011;11962;50.838;4.430;2023-08-24T03:55:01;6.40;;;5.05;;
23567;SDS011;11962;50.838;4.430;2023-08-24T03:57:27;9.05;;;5.35;;
23567;SDS011;11962;50.838;4.430;2023-08-24T03:59:53;9.25;;;5.63;;
23567;SDS011;11962;50.838;4.430;2023-08-24T04:02:18;9.02;;;5.20;;
23567;SDS011;11962;50.838;4.430;2023-08-24T04:04:45;8.13;;;5.35;;
23567;SDS011;11962;50.838;4.430;2023-08-24T04:07:11;10.23;;;5.32;;
23567;SDS011;11962;50.838;4.430;2023-08-24T04:09:37;13.35;;;5.43;;
23567;SDS011;11962;50.838;4.430;2023-08-24T04:12:02;12.73;;;5.55;;
23567;SDS011;11962;50.838;4.430;2023-08-24T04:14:28;9.32;;;5.60;;
23567;SDS011;11962;50.838;4.430;2023-08-24T04:16:54;6.45;;;4.97;;
23567;SDS011;11962;50.838;4.430;2023-08-24T04:19:20;8.82;;;5.90;;
23567;SDS011;11962;50.838;4.430;2023-08-24T04:21:46;7.65;;;4.97;;
23567;SDS011;11962;50.838;4.430;2023-08-24T04:24:12;8.10;;;5.38;;
23567;SDS011;11962;50.838;4.430;2023-08-24T04:26:38;8.77;;;5.47;;
23567;SDS011;11962;50.838;4.430;2023-08-24T04:29:04;7.20;;;5.13;;
23567;SDS011;11962;50.838;4.430;2023-08-24T04:31:29;7.80;;;5.90;;
23567;SDS011;11962;50.838;4.430;2023-08-24T04:33:55;9.23;;;5.30;;
23567;SDS011;11962;50.838;4.430;2023-08-24T04:36:21;6.60;;;4.72;;
23567;SDS011;11962;50.838;4.430;2023-08-24T04:38:46;8.50;;;5.10;;
23567;SDS011;11962;50.838;4.430;2023-08-24T04:41:12;9.35;;;5.43;;
23567;SDS011;11962;50.838;4.430;2023-08-24T04:43:38;6.43;;;5.43;;
23567;SDS011;11962;50.838;4.430;2023-08-24T04:46:03;8.48;;;5.05;;
23567;SDS011;11962;50.838;4.430;2023-08-24T04:48:29;7.57;;;5.60;;
23567;SDS011;11962;50.838;4.430;2023-08-24T04:50:59;7.35;;;5.55;;
23567;SDS011;11962;50.838;4.430;2023-08-24T04:53:28;7.32;;;4.88;;
23567;SDS011;11962;50.838;4.430;2023-08-24T04:55:54;8.20;;;5.50;;
23567;SDS011;11962;50.838;4.430;2023-08-24T04:58:20;9.77;;;5.07;;
23567;SDS011;11962;50.838;4.430;2023-08-24T05:00:46;10.63;;;5.13;;
23567;SDS011;11962;50.838;4.430;2023-08-24T05:03:13;8.50;;;5.35;;
23567;SDS011;11962;50.838;4.430;2023-08-24T05:05:39;8.57;;;5.35;;
23567;SDS011;11962;50.838;4.430;2023-08-24T05:08:05;9.93;;;5.55;;
23567;SDS011;11962;50.838;4.430;2023-08-24T05:10:34;8.98;;;5.00;;
23567;SDS011;11962;50.838;4.430;2023-08-24T05:13:00;8.82;;;5.05;;
23567;SDS011;11962;50.838;4.430;2023-08-24T05:15:26;10.25;;;5.70;;
23567;SDS011;11962;50.838;4.430;2023-08-24T05:17:52;8.27;;;5.07;;
23567;SDS011;11962;50.838;4.430;2023-08-24T05:20:27;8.60;;;5.32;;
23567;SDS011;11962;50.838;4.430;2023-08-24T05:22:54;8.38;;;5.80;;
23567;SDS011;11962;50.838;4.430;2023-08-24T05:25:20;10.07;;;6.00;;
23567;SDS011;11962;50.838;4.430;2023-08-24T05:27:46;6.65;;;4.80;;
23567;SDS011;11962;50.838;4.430;2023-08-24T05:30:12;9.00;;;5.38;;
23567;SDS011;11962;50.838;4.430;2023-08-24T05:32:38;8.10;;;4.78;;
23567;SDS011;11962;50.838;4.430;2023-08-24T05:35:07;6.60;;;5.00;;
23567;SDS011;11962;50.838;4.430;2023-08-24T05:37:34;7.25;;;4.95;;
23567;SDS011;11962;50.838;4.430;2023-08-24T05:40:00;8.50;;;4.75;;
23567;SDS011;11962;50.838;4.430;2023-08-24T05:42:26;7.78;;;4.43;;
23567;SDS011;11962;50.838;4.430;2023-08-24T05:44:52;9.75;;;4.18;;
23567;SDS011;11962;50.838;4.430;2023-08-24T05:47:18;8.50;;;4.60;;
23567;SDS011;11962;50.838;4.430;2023-08-24T05:49:44;9.02;;;4.30;;
23567;SDS011;11962;50.838;4.430;2023-08-24T05:52:10;9.68;;;4.75;;
23567;SDS011;11962;50.838;4.430;2023-08-24T05:54:37;5.82;;;3.83;;
23567;SDS011;11962;50.838;4.430;2023-08-24T05:57:03;6.45;;;4.53;;
23567;SDS011;11962;50.838;4.430;2023-08-24T05:59:29;8.25;;;4.50;;
23567;SDS011;11962;50.838;4.430;2023-08-24T06:01:55;9.85;;;4.95;;
23567;SDS011;11962;50.838;4.430;2023-08-24T06:04:21;8.52;;;4.43;;
23567;SDS011;11962;50.838;4.430;2023-08-24T06:06:47;7.63;;;4.45;;
23567;SDS011;11962;50.838;4.430;2023-08-24T06:09:13;10.60;;;4.40;;
23567;SDS011;11962;50.838;4.430;2023-08-24T06:11:40;8.20;;;4.25;;
23567;SDS011;11962;50.838;4.430;2023-08-24T06:14:06;9.10;;;4.80;;
23567;SDS011;11962;50.838;4.430;2023-08-24T06:16:32;4.50;;;3.20;;
23567;SDS011;11962;50.838;4.430;2023-08-24T06:18:58;4.75;;;3.90;;
23567;SDS011;11962;50.838;4.430;2023-08-24T06:21:23;7.05;;;3.70;;
23567;SDS011;11962;50.838;4.430;2023-08-24T06:23:49;10.02;;;4.53;;
23567;SDS011;11962;50.838;4.430;2023-08-24T06:26:15;9.13;;;4.68;;
23567;SDS011;11962;50.838;4.430;2023-08-24T06:28:42;8.80;;;4.22;;
23567;SDS011;11962;50.838;4.430;2023-08-24T06:31:08;8.10;;;4.15;;
23567;SDS011;11962;50.838;4.430;2023-08-24T06:33:34;6.65;;;3.40;;
23567;SDS011;11962;50.838;4.430;2023-08-24T06:36:01;6.05;;;3.83;;
23567;SDS011;11962;50.838;4.430;2023-08-24T06:38:27;4.68;;;3.30;;
23567;SDS011;11962;50.838;4.430;2023-08-24T06:40:54;5.25;;;3.67;;
23567;SDS011;11962;50.838;4.430;2023-08-24T06:43:19;5.40;;;3.67;;
23567;SDS011;11962;50.838;4.430;2023-08-24T06:45:45;6.07;;;3.83;;
23567;SDS011;11962;50.838;4.430;2023-08-24T06:48:11;7.85;;;3.70;;
23567;SDS011;11962;50.838;4.430;2023-08-24T06:50:37;8.27;;;3.88;;
23567;SDS011;11962;50.838;4.430;2023-08-24T06:53:03;7.82;;;3.88;;
23567;SDS011;11962;50.838;4.430;2023-08-24T06:55:29;7.15;;;3.65;;
23567;SDS011;11962;50.838;4.430;2023-08-24T06:57:55;7.88;;;3.90;;
23567;SDS011;11962;50.838;4.430;2023-08-24T07:00:21;7.10;;;3.85;;
23567;SDS011;11962;50.838;4.430;2023-08-24T07:02:48;5.28;;;3.35;;
23567;SDS011;11962;50.838;4.430;2023-08-24T07:05:15;6.32;;;3.45;;
23567;SDS011;11962;50.838;4.430;2023-08-24T07:07:46;6.28;;;3.40;;
23567;SDS011;11962;50.838;4.430;2023-08-24T07:10:14;5.47;;;3.20;;
23567;SDS011;11962;50.838;4.430;2023-08-24T07:12:40;8.52;;;3.30;;
23567;SDS011;11962;50.838;4.430;2023-08-24T07:15:06;8.00;;;2.80;;
23567;SDS011;11962;50.838;4.430;2023-08-24T07:17:36;7.35;;;2.83;;
23567;SDS011;11962;50.838;4.430;2023-08-24T07:20:02;5.57;;;2.55;;
23567;SDS011;11962;50.838;4.430;2023-08-24T07:22:33;7.22;;;3.22;;
23567;SDS011;11962;50.838;4.430;2023-08-24T07:24:59;9.63;;;2.55;;
23567;SDS011;11962;50.838;4.430;2023-08-24T07:27:25;10.80;;;3.13;;
23567;SDS011;11962;50.838;4.430;2023-08-24T07:29:53;6.95;;;2.75;;
23567;SDS011;11962;50.838;4.430;2023-08-24T07:32:19;7.60;;;3.17;;
23567;SDS011;11962;50.838;4.430;2023-08-24T07:34:45;5.45;;;2.75;;
23567;SDS011;11962;50.838;4.430;2023-08-24T07:37:10;7.85;;;3.28;;
23567;SDS011;11962;50.838;4.430;2023-08-24T07:39:37;10.68;;;3.47;;
23567;SDS011;11962;50.838;4.430;2023-08-24T07:42:03;6.10;;;2.70;;
23567;SDS011;11962;50.838;4.430;2023-08-24T07:44:29;5.55;;;3.03;;
23567;SDS011;11962;50.838;4.430;2023-08-24T07:46:55;5.53;;;2.90;;
23567;SDS011;11962;50.838;4.430;2023-08-24T07:49:21;5.97;;;3.08;;
23567;SDS011;11962;50.838;4.430;2023-08-24T07:51:47;8.55;;;3.05;;
23567;SDS011;11962;50.838;4.430;2023-08-24T07:54:12;7.20;;;3.22;;
23567;SDS011;11962;50.838;4.430;2023-08-24T07:56:38;9.27;;;2.70;;
23567;SDS011;11962;50.838;4.430;2023-08-24T07:59:04;4.88;;;2.75;;
23567;SDS011;11962;50.838;4.430;2023-08-24T08:01:30;7.22;;;2.90;;
23567;SDS011;11962;50.838;4.430;2023-08-24T08:03:56;5.45;;;3.08;;
23567;SDS011;11962;50.838;4.430;2023-08-24T08:06:21;6.93;;;2.85;;
23567;SDS011;11962;50.838;4.430;2023-08-24T08:08:49;7.18;;;2.80;;
23567;SDS011;11962;50.838;4.430;2023-08-24T08:11:16;6.83;;;3.20;;
23567;SDS011;11962;50.838;4.430;2023-08-24T08:13:42;5.93;;;2.85;;
23567;SDS011;11962;50.838;4.430;2023-08-24T08:16:08;6.22;;;2.90;;
23567;SDS011;11962;50.838;4.430;2023-08-24T08:18:36;7.45;;;2.97;;
23567;SDS011;11962;50.838;4.430;2023-08-24T08:21:09;5.75;;;3.08;;
23567;SDS011;11962;50.838;4.430;2023-08-24T08:23:45;7.03;;;2.90;;
23567;SDS011;11962;50.838;4.430;2023-08-24T08:26:11;6.05;;;2.78;;
23567;SDS011;11962;50.838;4.430;2023-08-24T08:28:38;8.35;;;3.63;;
23567;SDS011;11962;50.838;4.430;2023-08-24T08:31:04;7.75;;;2.95;;
23567;SDS011;11962;50.838;4.430;2023-08-24T08:33:31;4.28;;;2.55;;
23567;SDS011;11962;50.838;4.430;2023-08-24T08:35:56;5.82;;;2.70;;
23567;SDS011;11962;50.838;4.430;2023-08-24T08:38:22;5.03;;;2.63;;
23567;SDS011;11962;50.838;4.430;2023-08-24T08:40:51;4.95;;;2.60;;
23567;SDS011;11962;50.838;4.430;2023-08-24T08:43:21;6.10;;;3.17;;
23567;SDS011;11962;50.838;4.430;2023-08-24T08:45:51;5.35;;;3.17;;
23567;SDS011;11962;50.838;4.430;2023-08-24T08:48:18;5.50;;;2.70;;
23567;SDS011;11962;50.838;4.430;2023-08-24T08:50:47;5.82;;;2.83;;
23567;SDS011;11962;50.838;4.430;2023-08-24T08:53:14;8.07;;;3.17;;
23567;SDS011;11962;50.838;4.430;2023-08-24T08:55:40;7.13;;;2.78;;
23567;SDS011;11962;50.838;4.430;2023-08-24T08:58:06;6.95;;;2.85;;
23567;SDS011;11962;50.838;4.430;2023-08-24T09:00:33;6.05;;;2.90;;
23567;SDS011;11962;50.838;4.430;2023-08-24T09:03:00;11.32;;;3.38;;
23567;SDS011;11962;50.838;4.430;2023-08-24T09:05:27;10.38;;;3.08;;
23567;SDS011;11962;50.838;4.430;2023-08-24T09:07:54;7.82;;;2.70;;
23567;SDS011;11962;50.838;4.430;2023-08-24T09:10:21;6.65;;;3.13;;
23567;SDS011;11962;50.838;4.430;2023-08-24T09:12:48;6.72;;;3.08;;
23567;SDS011;11962;50.838;4.430;2023-08-24T09:15:14;6.45;;;3.13;;
23567;SDS011;11962;50.838;4.430;2023-08-24T09:17:48;6.13;;;3.05;;
23567;SDS011;11962;50.838;4.430;2023-08-24T09:20:14;4.53;;;3.03;;
23567;SDS011;11962;50.838;4.430;2023-08-24T09:22:40;4.88;;;3.30;;
23567;SDS011;11962;50.838;4.430;2023-08-24T09:25:09;6.65;;;3.58;;
23567;SDS011;11962;50.838;4.430;2023-08-24T09:27:36;7.45;;;3.30;;
23567;SDS011;11962;50.838;4.430;2023-08-24T09:30:02;7.88;;;2.95;;
23567;SDS011;11962;50.838;4.430;2023-08-24T09:32:28;7.88;;;3.25;;
23567;SDS011;11962;50.838;4.430;2023-08-24T09:34:55;10.63;;;3.53;;
23567;SDS011;11962;50.838;4.430;2023-08-24T09:37:30;6.93;;;3.05;;
23567;SDS011;11962;50.838;4.430;2023-08-24T09:40:05;12.60;;;3.78;;
23567;SDS011;11962;50.838;4.430;2023-08-24T09:42:42;9.68;;;3.65;;
23567;SDS011;11962;50.838;4.430;2023-08-24T09:45:10;7.53;;;3.95;;
23567;SDS011;11962;50.838;4.430;2023-08-24T09:47:37;10.98;;;4.43;;
23567;SDS011;11962;50.838;4.430;2023-08-24T09:50:04;9.30;;;4.65;;
23567;SDS011;11962;50.838;4.430;2023-08-24T09:52:33;11.88;;;4.85;;
23567;SDS011;11962;50.838;4.430;2023-08-24T09:55:03;6.40;;;4.03;;
23567;SDS011;11962;50.838;4.430;2023-08-24T09:57:41;11.75;;;4.97;;
23567;SDS011;11962;50.838;4.430;2023-08-24T10:00:08;10.40;;;4.47;;
23567;SDS011;11962;50.838;4.430;2023-08-24T10:02:46;10.05;;;4.95;;
23567;SDS011;11962;50.838;4.430;2023-08-24T10:05:23;11.85;;;5.38;;
23567;SDS011;11962;50.838;4.430;2023-08-24T10:07:51;9.73;;;4.97;;
23567;SDS011;11962;50.838;4.430;2023-08-24T10:10:19;9.95;;;5.15;;
23567;SDS011;11962;50.838;4.430;2023-08-24T10:12:47;14.45;;;5.72;;
23567;SDS011;11962;50.838;4.430;2023-08-24T10:15:17;8.98;;;4.95;;
23567;SDS011;11962;50.838;4.430;2023-08-24T10:17:44;11.02;;;5.38;;
23567;SDS011;11962;50.838;4.430;2023-08-24T10:20:10;12.43;;;5.20;;
23567;SDS011;11962;50.838;4.430;2023-08-24T10:22:37;13.20;;;5.47;;
23567;SDS011;11962;50.838;4.430;2023-08-24T10:25:08;10.65;;;4.95;;
23567;SDS011;11962;50.838;4.430;2023-08-24T10:27:34;12.07;;;5.32;;
23567;SDS011;11962;50.838;4.430;2023-08-24T10:30:01;13.63;;;5.60;;
23567;SDS011;11962;50.838;4.430;2023-08-24T10:32:26;14.77;;;5.50;;
23567;SDS011;11962;50.838;4.430;2023-08-24T10:34:53;19.25;;;6.00;;
23567;SDS011;11962;50.838;4.430;2023-08-24T10:37:24;8.88;;;5.22;;
23567;SDS011;11962;50.838;4.430;2023-08-24T10:39:52;7.13;;;5.15;;
23567;SDS011;11962;50.838;4.430;2023-08-24T10:42:17;9.20;;;5.25;;
23567;SDS011;11962;50.838;4.430;2023-08-24T10:44:44;9.38;;;4.75;;
23567;SDS011;11962;50.838;4.430;2023-08-24T10:49:44;8.98;;;4.40;;
23567;SDS011;11962;50.838;4.430;2023-08-24T10:54:52;9.73;;;4.30;;
23567;SDS011;11962;50.838;4.430;2023-08-24T10:57:19;7.53;;;4.00;;
23567;SDS011;11962;50.838;4.430;2023-08-24T11:00:03;10.00;;;4.15;;
23567;SDS011;11962;50.838;4.430;2023-08-24T11:02:42;8.02;;;4.05;;
23567;SDS011;11962;50.838;4.430;2023-08-24T11:15:34;7.60;;;4.25;;
23567;SDS011;11962;50.838;4.430;2023-08-24T11:20:44;8.23;;;4.20;;
23567;SDS011;11962;50.838;4.430;2023-08-24T11:23:11;9.13;;;4.85;;
23567;SDS011;11962;50.838;4.430;2023-08-24T11:25:37;9.10;;;4.57;;
23567;SDS011;11962;50.838;4.430;2023-08-24T11:28:04;12.98;;;4.50;;
23567;SDS011;11962;50.838;4.430;2023-08-24T11:30:33;6.60;;;4.20;;
23567;SDS011;11962;50.838;4.430;2023-08-24T11:33:00;8.15;;;4.50;;
23567;SDS011;11962;50.838;4.430;2023-08-24T11:35:27;7.80;;;4.30;;
23567;SDS011;11962;50.838;4.430;2023-08-24T11:37:53;8.77;;;4.18;;
23567;SDS011;11962;50.838;4.430;2023-08-24T11:40:22;10.32;;;4.38;;
23567;SDS011;11962;50.838;4.430;2023-08-24T11:42:55;8.40;;;4.32;;
23567;SDS011;11962;50.838;4.430;2023-08-24T11:45:21;7.18;;;4.30;;
23567;SDS011;11962;50.838;4.430;2023-08-24T11:47:48;10.45;;;4.10;;
23567;SDS011;11962;50.838;4.430;2023-08-24T11:50:14;6.80;;;4.10;;
23567;SDS011;11962;50.838;4.430;2023-08-24T11:52:41;7.13;;;4.22;;
23567;SDS011;11962;50.838;4.430;2023-08-24T11:55:07;8.23;;;3.63;;
23567;SDS011;11962;50.838;4.430;2023-08-24T11:57:36;6.93;;;4.57;;
23567;SDS011;11962;50.838;4.430;2023-08-24T12:00:03;8.18;;;3.95;;
23567;SDS011;11962;50.838;4.430;2023-08-24T12:02:30;4.60;;;4.07;;
23567;SDS011;11962;50.838;4.430;2023-08-24T12:04:57;6.38;;;3.70;;
23567;SDS011;11962;50.838;4.430;2023-08-24T12:07:23;8.15;;;4.50;;
23567;SDS011;11962;50.838;4.430;2023-08-24T12:09:51;12.93;;;4.70;;
23567;SDS011;11962;50.838;4.430;2023-08-24T12:12:19;8.93;;;4.65;;
23567;SDS011;11962;50.838;4.430;2023-08-24T12:14:49;6.65;;;4.60;;
23567;SDS011;11962;50.838;4.430;2023-08-24T12:17:15;7.43;;;4.53;;
23567;SDS011;11962;50.838;4.430;2023-08-24T12:19:42;7.07;;;5.07;;
23567;SDS011;11962;50.838;4.430;2023-08-24T12:22:20;12.20;;;5.32;;
23567;SDS011;11962;50.838;4.430;2023-08-24T12:24:47;6.47;;;5.03;;
23567;SDS011;11962;50.838;4.430;2023-08-24T12:27:22;6.10;;;4.82;;
23567;SDS011;11962;50.838;4.430;2023-08-24T12:29:49;7.05;;;4.80;;
23567;SDS011;11962;50.838;4.430;2023-08-24T12:32:16;6.00;;;4.60;;
23567;SDS011;11962;50.838;4.430;2023-08-24T12:34:45;7.30;;;4.93;;
23567;SDS011;11962;50.838;4.430;2023-08-24T12:37:13;6.50;;;4.53;;
23567;SDS011;11962;50.838;4.430;2023-08-24T12:39:39;9.05;;;5.07;;
23567;SDS011;11962;50.838;4.430;2023-08-24T12:42:05;6.93;;;5.10;;
23567;SDS011;11962;50.838;4.430;2023-08-24T12:44:32;6.47;;;4.68;;
23567;SDS011;11962;50.838;4.430;2023-08-24T12:47:01;6.22;;;4.57;;
23567;SDS011;11962;50.838;4.430;2023-08-24T12:49:27;6.28;;;4.18;;
23567;SDS011;11962;50.838;4.430;2023-08-24T12:51:53;7.00;;;4.72;;
23567;SDS011;11962;50.838;4.430;2023-08-24T12:54:19;6.70;;;4.40;;
23567;SDS011;11962;50.838;4.430;2023-08-24T12:56:44;7.60;;;4.55;;
23567;SDS011;11962;50.838;4.430;2023-08-24T12:59:10;7.55;;;4.40;;
23567;SDS011;11962;50.838;4.430;2023-08-24T13:01:37;6.50;;;3.92;;
23567;SDS011;11962;50.838;4.430;2023-08-24T13:04:03;7.60;;;4.38;;
23567;SDS011;11962;50.838;4.430;2023-08-24T13:06:29;8.88;;;4.15;;
23567;SDS011;11962;50.838;4.430;2023-08-24T13:08:55;5.45;;;4.07;;
23567;SDS011;11962;50.838;4.430;2023-08-24T13:11:21;11.80;;;3.80;;
23567;SDS011;11962;50.838;4.430;2023-08-24T13:13:47;6.30;;;4.18;;
23567;SDS011;11962;50.838;4.430;2023-08-24T13:16:14;5.43;;;3.70;;
23567;SDS011;11962;50.838;4.430;2023-08-24T13:18:40;8.75;;;3.83;;
23567;SDS011;11962;50.838;4.430;2023-08-24T13:21:05;14.45;;;4.13;;
23567;SDS011;11962;50.838;4.430;2023-08-24T13:23:31;7.38;;;3.65;;
23567;SDS011;11962;50.838;4.430;2023-08-24T13:25:58;5.90;;;3.13;;
23567;SDS011;11962;50.838;4.430;2023-08-24T13:28:24;15.15;;;3.90;;
23567;SDS011;11962;50.838;4.430;2023-08-24T13:30:50;12.82;;;3.72;;
23567;SDS011;11962;50.838;4.430;2023-08-24T13:33:15;5.72;;;2.92;;
23567;SDS011;11962;50.838;4.430;2023-08-24T13:35:42;7.95;;;3.15;;
23567;SDS011;11962;50.838;4.430;2023-08-24T13:38:08;6.57;;;3.33;;
23567;SDS011;11962;50.838;4.430;2023-08-24T13:40:33;4.53;;;3.10;;
23567;SDS011;11962;50.838;4.430;2023-08-24T13:42:59;10.15;;;3.28;;
23567;SDS011;11962;50.838;4.430;2023-08-24T13:45:25;7.63;;;3.30;;
23567;SDS011;11962;50.838;4.430;2023-08-24T13:47:51;8.65;;;3.17;;
23567;SDS011;11962;50.838;4.430;2023-08-24T13:50:17;11.95;;;3.28;;
23567;SDS011;11962;50.838;4.430;2023-08-24T13:52:43;8.02;;;3.28;;
23567;SDS011;11962;50.838;4.430;2023-08-24T13:55:09;9.18;;;2.97;;
23567;SDS011;11962;50.838;4.430;2023-08-24T13:57:35;7.40;;;2.95;;
23567;SDS011;11962;50.838;4.430;2023-08-24T14:00:01;6.93;;;3.33;;
23567;SDS011;11962;50.838;4.430;2023-08-24T14:02:29;10.98;;;3.05;;
23567;SDS011;11962;50.838;4.430;2023-08-24T14:04:55;5.75;;;2.92;;
23567;SDS011;11962;50.838;4.430;2023-08-24T14:07:20;7.40;;;2.58;;
23567;SDS011;11962;50.838;4.430;2023-08-24T14:09:46;5.53;;;2.60;;
23567;SDS011;11962;50.838;4.430;2023-08-24T14:12:12;5.32;;;2.72;;
23567;SDS011;11962;50.838;4.430;2023-08-24T14:14:38;5.97;;;2.58;;
23567;SDS011;11962;50.838;4.430;2023-08-24T14:17:03;6.78;;;2.60;;
23567;SDS011;11962;50.838;4.430;2023-08-24T14:19:29;7.88;;;2.30;;
23567;SDS011;11962;50.838;4.430;2023-08-24T14:21:55;8.98;;;2.60;;
23567;SDS011;11962;50.838;4.430;2023-08-24T14:24:20;5.95;;;2.50;;
23567;SDS011;11962;50.838;4.430;2023-08-24T14:26:46;9.20;;;2.55;;
23567;SDS011;11962;50.838;4.430;2023-08-24T14:29:12;5.30;;;2.10;;
23567;SDS011;11962;50.838;4.430;2023-08-24T14:31:39;5.25;;;2.08;;
23567;SDS011;11962;50.838;4.430;2023-08-24T14:34:05;6.22;;;1.98;;
23567;SDS011;11962;50.838;4.430;2023-08-24T14:36:31;6.85;;;2.10;;
23567;SDS011;11962;50.838;4.430;2023-08-24T14:38:57;6.03;;;1.88;;
23567;SDS011;11962;50.838;4.430;2023-08-24T14:41:23;6.40;;;2.10;;
23567;SDS011;11962;50.838;4.430;2023-08-24T14:43:49;5.18;;;2.30;;
23567;SDS011;11962;50.838;4.430;2023-08-24T14:46:15;4.13;;;1.80;;
23567;SDS011;11962;50.838;4.430;2023-08-24T14:48:41;5.50;;;1.98;;
23567;SDS011;11962;50.838;4.430;2023-08-24T14:51:06;3.03;;;1.60;;
23567;SDS011;11962;50.838;4.430;2023-08-24T14:53:32;4.25;;;2.00;;
23567;SDS011;11962;50.838;4.430;2023-08-24T14:55:58;3.92;;;2.00;;
23567;SDS011;11962;50.838;4.430;2023-08-24T14:58:24;3.63;;;2.05;;
23567;SDS011;11962;50.838;4.430;2023-08-24T15:00:52;6.38;;;1.98;;
23567;SDS011;11962;50.838;4.430;2023-08-24T15:03:20;5.85;;;2.05;;
23567;SDS011;11962;50.838;4.430;2023-08-24T15:05:55;4.55;;;1.73;;
23567;SDS011;11962;50.838;4.430;2023-08-24T15:08:34;5.53;;;1.42;;
23567;SDS011;11962;50.838;4.430;2023-08-24T15:11:01;1.85;;;1.40;;
23567;SDS011;11962;50.838;4.430;2023-08-24T15:13:28;3.92;;;1.42;;
23567;SDS011;11962;50.838;4.430;2023-08-24T15:15:55;4.35;;;1.60;;